createdAt,value
2022-08-21T00:00:22.476Z,20.14
2022-08-21T00:02:53.322Z,20.15
2022-08-21T00:05:20.540Z,20.20
2022-08-21T00:07:47.287Z,20.23
2022-08-21T00:10:14.612Z,20.22
2022-08-21T00:12:42.540Z,20.19
2022-08-21T00:15:11.178Z,20.05
2022-08-21T00:17:38.460Z,20.03
2022-08-21T00:20:09.534Z,20.01
2022-08-21T00:22:37.621Z,19.85
2022-08-21T00:25:06.825Z,19.94
2022-08-21T00:27:34.433Z,19.98
2022-08-21T00:30:01.092Z,19.95
2022-08-21T00:32:29.014Z,19.96
2022-08-21T00:34:55.634Z,19.93
2022-08-21T00:37:22.763Z,19.81
2022-08-21T00:39:50.110Z,19.81
2022-08-21T00:42:17.354Z,19.72
2022-08-21T00:44:45.850Z,19.50
2022-08-21T00:47:12.998Z,19.56
2022-08-21T00:49:41.216Z,19.57
2022-08-21T00:52:11.981Z,19.58
2022-08-21T00:54:40.363Z,19.57
2022-08-21T00:57:16.999Z,19.52
2022-08-21T00:59:46.832Z,19.48
2022-08-21T01:02:14.250Z,19.50
2022-08-21T01:04:40.999Z,19.39
2022-08-21T01:07:07.982Z,19.46
2022-08-21T01:09:34.818Z,19.48
2022-08-21T01:12:01.828Z,19.58
2022-08-21T01:14:29.675Z,19.48
2022-08-21T01:16:58.712Z,19.47
2022-08-21T01:19:26.442Z,19.47
2022-08-21T01:21:54.709Z,19.35
2022-08-21T01:24:22.270Z,19.28
2022-08-21T01:26:50.617Z,19.40
2022-08-21T01:29:38.921Z,19.32
2022-08-21T01:32:18.374Z,19.26
2022-08-21T01:34:48.041Z,19.20
2022-08-21T01:37:16.155Z,19.10
2022-08-21T01:39:45.492Z,19.18
2022-08-21T01:42:12.242Z,19.16
2022-08-21T01:44:38.938Z,19.05
2022-08-21T01:47:09.595Z,18.96
2022-08-21T01:49:37.976Z,19.07
2022-08-21T01:52:05.742Z,19.05
2022-08-21T01:54:36.362Z,19.02
2022-08-21T01:57:03.476Z,19.00
2022-08-21T01:59:30.138Z,18.97
2022-08-21T02:01:58.501Z,18.97
2022-08-21T02:04:25.217Z,18.96
2022-08-21T02:06:51.974Z,18.97
2022-08-21T02:09:19.410Z,18.96
2022-08-21T02:11:47.102Z,18.85
2022-08-21T02:14:15.761Z,18.95
2022-08-21T02:17:03.408Z,18.88
2022-08-21T02:19:40.009Z,18.87
2022-08-21T02:22:09.286Z,18.80
2022-08-21T02:24:38.523Z,18.80
2022-08-21T02:27:26.241Z,18.74
2022-08-21T02:29:54.871Z,18.64
2022-08-21T02:32:22.394Z,18.66
2022-08-21T02:34:49.928Z,18.63
2022-08-21T02:37:16.689Z,18.52
2022-08-21T02:39:43.352Z,18.58
2022-08-21T02:42:09.966Z,18.49
2022-08-21T02:44:36.587Z,18.45
2022-08-21T02:47:03.196Z,18.56
2022-08-21T02:49:29.729Z,18.56
2022-08-21T02:51:56.284Z,18.55
2022-08-21T02:54:22.823Z,18.53
2022-08-21T02:56:49.394Z,18.54
2022-08-21T02:59:15.976Z,18.54
2022-08-21T03:01:42.578Z,18.46
2022-08-21T03:04:09.175Z,18.50
2022-08-21T03:06:35.780Z,18.50
2022-08-21T03:09:02.445Z,18.40
2022-08-21T03:11:29.466Z,18.44
2022-08-21T03:13:56.055Z,18.37
2022-08-21T03:16:22.684Z,18.33
2022-08-21T03:18:49.320Z,18.30
2022-08-21T03:21:15.942Z,18.21
2022-08-21T03:23:43.079Z,18.21
2022-08-21T03:26:11.776Z,18.15
2022-08-21T03:28:38.392Z,18.10
2022-08-21T03:31:05.747Z,17.98
2022-08-21T03:33:33.076Z,18.18
2022-08-21T03:36:12.178Z,18.22
2022-08-21T03:38:39.591Z,18.18
2022-08-21T03:41:07.114Z,18.14
2022-08-21T03:43:35.033Z,18.04
2022-08-21T03:46:04.425Z,18.01
2022-08-21T03:48:31.651Z,17.99
2022-08-21T03:50:58.301Z,17.94
2022-08-21T03:53:27.422Z,17.94
2022-08-21T03:55:54.349Z,17.94
2022-08-21T03:58:24.694Z,17.94
2022-08-21T04:00:54.929Z,17.92
2022-08-21T04:03:22.374Z,17.94
2022-08-21T04:05:49.172Z,18.04
2022-08-21T04:08:19.599Z,18.10
2022-08-21T04:10:47.259Z,18.11
2022-08-21T04:13:13.853Z,18.16
2022-08-21T04:15:40.776Z,18.09
2022-08-21T04:18:07.930Z,18.24
2022-08-21T04:20:36.307Z,18.25
2022-08-21T04:23:03.653Z,18.20
2022-08-21T04:25:30.564Z,18.12
2022-08-21T04:27:57.216Z,18.20
2022-08-21T04:30:28.228Z,18.11
2022-08-21T04:32:57.755Z,18.10
2022-08-21T04:35:27.410Z,17.91
2022-08-21T04:37:54.472Z,17.82
2022-08-21T04:40:23.293Z,17.85
2022-08-21T04:42:52.629Z,17.79
2022-08-21T04:45:23.165Z,17.73
2022-08-21T04:47:54.802Z,17.72
2022-08-21T04:50:25.643Z,17.76
2022-08-21T04:52:52.811Z,17.71
2022-08-21T04:55:20.076Z,17.94
2022-08-21T04:57:48.427Z,18.04
2022-08-21T05:00:19.365Z,18.12
2022-08-21T05:02:48.473Z,18.05
2022-08-21T05:05:15.517Z,18.06
2022-08-21T05:07:44.804Z,17.98
2022-08-21T05:10:12.651Z,17.85
2022-08-21T05:12:42.996Z,17.73
2022-08-21T05:15:13.526Z,17.74
2022-08-21T05:17:41.748Z,17.75
2022-08-21T05:20:13.379Z,17.81
2022-08-21T05:22:40.092Z,17.67
2022-08-21T05:25:10.186Z,17.76
2022-08-21T05:27:39.749Z,17.75
2022-08-21T05:30:10.738Z,17.61
2022-08-21T05:32:37.859Z,17.77
2022-08-21T05:35:09.031Z,17.78
2022-08-21T05:37:35.929Z,17.86
2022-08-21T05:40:04.761Z,17.90
2022-08-21T05:42:54.648Z,18.04
2022-08-21T05:45:39.338Z,18.15
2022-08-21T05:48:13.385Z,18.27
2022-08-21T05:50:40.157Z,18.37
2022-08-21T05:53:07.385Z,18.44
2022-08-21T05:55:34.613Z,18.51
2022-08-21T05:58:01.710Z,18.60
2022-08-21T06:00:28.429Z,18.67
2022-08-21T06:02:55.177Z,18.75
2022-08-21T06:05:35.878Z,18.82
2022-08-21T06:08:04.878Z,18.93
2022-08-21T06:10:32.115Z,18.97
2022-08-21T06:12:59.045Z,18.99
2022-08-21T06:15:25.912Z,18.98
2022-08-21T06:17:54.295Z,19.00
2022-08-21T06:20:21.108Z,19.11
2022-08-21T06:22:47.707Z,19.27
2022-08-21T06:25:14.266Z,19.37
2022-08-21T06:27:41.089Z,19.54
2022-08-21T06:30:08.517Z,19.73
2022-08-21T06:32:35.931Z,20.01
2022-08-21T06:35:02.584Z,20.17
2022-08-21T06:37:29.153Z,20.27
2022-08-21T06:39:55.859Z,20.51
2022-08-21T06:42:22.472Z,20.82
2022-08-21T06:44:54.653Z,21.07
2022-08-21T06:47:21.217Z,21.39
2022-08-21T06:49:47.756Z,21.67
2022-08-21T06:52:15.068Z,21.90
2022-08-21T06:54:41.802Z,22.28
2022-08-21T06:57:08.634Z,22.61
2022-08-21T06:59:35.437Z,22.88
2022-08-21T07:02:01.995Z,23.07
2022-08-21T07:04:28.775Z,23.17
2022-08-21T07:06:55.386Z,23.36
2022-08-21T07:09:24.668Z,23.59
2022-08-21T07:11:54.383Z,23.82
2022-08-21T07:14:21.045Z,24.00
2022-08-21T07:16:48.745Z,23.98
2022-08-21T07:19:15.339Z,23.88
2022-08-21T07:21:41.985Z,24.01
2022-08-21T07:24:08.560Z,24.17
2022-08-21T07:26:35.341Z,23.92
2022-08-21T07:29:02.210Z,23.77
2022-08-21T07:31:28.847Z,24.14
2022-08-21T07:33:55.692Z,24.32
2022-08-21T07:36:22.506Z,24.39
2022-08-21T07:38:49.362Z,24.39
2022-08-21T07:41:26.418Z,24.47
2022-08-21T07:43:53.643Z,24.74
2022-08-21T07:46:20.787Z,24.84
2022-08-21T07:48:47.703Z,25.10
2022-08-21T07:51:17.295Z,25.31
2022-08-21T07:53:49.401Z,25.37
2022-08-21T07:56:16.049Z,25.17
2022-08-21T07:58:42.726Z,25.02
2022-08-21T08:01:09.824Z,24.89
2022-08-21T08:03:37.694Z,25.01
2022-08-21T08:06:05.946Z,25.23
2022-08-21T08:08:33.062Z,25.42
2022-08-21T08:11:00.924Z,25.70
2022-08-21T08:13:28.962Z,25.77
2022-08-21T08:15:55.706Z,25.24
2022-08-21T08:18:22.424Z,25.07
2022-08-21T08:20:49.174Z,25.11
2022-08-21T08:23:16.314Z,24.80
2022-08-21T08:25:43.170Z,24.29
2022-08-21T08:28:16.585Z,24.54
2022-08-21T08:30:44.715Z,25.01
2022-08-21T08:33:12.223Z,24.93
2022-08-21T08:35:39.474Z,24.48
2022-08-21T08:38:06.691Z,24.31
2022-08-21T08:40:43.674Z,24.85
2022-08-21T08:43:14.708Z,25.40
2022-08-21T08:45:46.711Z,25.60
2022-08-21T08:48:15.747Z,25.80
2022-08-21T08:50:55.531Z,25.97
2022-08-21T08:53:30.077Z,25.67
2022-08-21T08:55:58.756Z,25.82
2022-08-21T08:58:31.394Z,26.25
2022-08-21T09:00:59.995Z,25.94
2022-08-21T09:03:28.867Z,25.39
2022-08-21T09:06:08.017Z,25.12
2022-08-21T09:08:49.979Z,24.64
2022-08-21T09:11:30.132Z,24.29
2022-08-21T09:14:22.528Z,23.98
2022-08-21T09:17:20.461Z,24.14
2022-08-21T09:20:38.185Z,24.05
2022-08-21T09:23:32.607Z,24.11
2022-08-21T09:26:13.012Z,24.16
2022-08-21T09:28:42.301Z,23.99
2022-08-21T09:31:17.147Z,24.41
2022-08-21T09:33:43.829Z,24.66
2022-08-21T09:36:11.331Z,24.94
2022-08-21T09:38:39.648Z,25.19
2022-08-21T09:41:11.341Z,25.14
2022-08-21T09:43:39.570Z,25.11
2022-08-21T09:46:12.629Z,25.20
2022-08-21T09:48:48.836Z,25.14
2022-08-21T09:51:19.297Z,25.31
2022-08-21T09:53:50.642Z,25.62
2022-08-21T09:56:57.304Z,25.85
2022-08-21T09:59:36.422Z,25.88
2022-08-21T10:02:19.026Z,25.84
2022-08-21T10:04:55.284Z,25.70
2022-08-21T10:07:24.817Z,25.71
2022-08-21T10:10:09.207Z,25.52
2022-08-21T10:12:50.862Z,25.63
2022-08-21T10:15:56.157Z,25.77
2022-08-21T10:18:43.348Z,26.00
2022-08-21T10:21:27.906Z,25.91
2022-08-21T10:24:49.895Z,25.51
2022-08-21T10:27:34.457Z,25.43
2022-08-21T10:30:09.756Z,25.51
2022-08-21T10:32:48.687Z,25.79
2022-08-21T10:35:21.557Z,25.94
2022-08-21T10:38:33.485Z,26.12
2022-08-21T10:41:29.629Z,26.28
2022-08-21T10:44:11.314Z,26.36
2022-08-21T10:46:58.034Z,26.48
2022-08-21T10:49:46.078Z,26.32
2022-08-21T10:52:24.662Z,26.44
2022-08-21T10:55:04.638Z,26.75
2022-08-21T10:57:49.967Z,26.71
2022-08-21T11:00:21.340Z,26.57
2022-08-21T11:02:59.580Z,26.65
2022-08-21T11:05:35.114Z,26.74
2022-08-21T11:08:12.195Z,26.95
2022-08-21T11:11:00.213Z,27.18
2022-08-21T11:13:38.402Z,26.81
2022-08-21T11:16:08.639Z,26.50
2022-08-21T11:18:40.600Z,26.40
2022-08-21T11:21:25.107Z,26.56
2022-08-21T11:24:04.636Z,26.54
2022-08-21T11:26:51.338Z,26.88
2022-08-21T11:29:35.684Z,27.14
2022-08-21T11:32:47.259Z,26.92
2022-08-21T11:35:31.952Z,26.69
2022-08-21T11:37:59.188Z,26.48
2022-08-21T11:40:45.997Z,26.36
2022-08-21T11:43:27.442Z,26.58
2022-08-21T11:46:00.697Z,26.86
2022-08-21T11:49:00.155Z,26.70
2022-08-21T11:51:46.543Z,26.62
2022-08-21T11:54:24.895Z,26.64
2022-08-21T11:57:13.991Z,26.45
2022-08-21T11:59:42.971Z,26.66
2022-08-21T12:02:16.027Z,26.74
2022-08-21T12:04:50.441Z,26.69
2022-08-21T12:07:30.401Z,26.66
2022-08-21T12:09:59.083Z,26.90
2022-08-21T12:12:35.207Z,27.10
2022-08-21T12:15:22.075Z,26.97
2022-08-21T12:18:26.487Z,27.22
2022-08-21T12:21:01.317Z,27.28
2022-08-21T12:23:34.695Z,27.61
2022-08-21T12:26:03.466Z,27.67
2022-08-21T12:28:31.983Z,27.75
2022-08-21T12:30:58.955Z,27.91
2022-08-21T12:33:31.279Z,28.13
2022-08-21T12:36:12.827Z,28.19
2022-08-21T12:38:54.872Z,28.26
2022-08-21T12:41:28.663Z,28.35
2022-08-21T12:44:00.131Z,28.56
2022-08-21T12:46:35.745Z,28.72
2022-08-21T12:49:15.178Z,28.71
2022-08-21T12:52:06.431Z,28.33
2022-08-21T12:54:40.531Z,28.13
2022-08-21T12:57:09.462Z,28.07
2022-08-21T12:59:40.897Z,28.01
2022-08-21T13:02:29.371Z,28.09
2022-08-21T13:04:57.604Z,28.21
2022-08-21T13:07:31.183Z,28.53
2022-08-21T13:10:02.799Z,28.78
2022-08-21T13:12:32.650Z,28.97
2022-08-21T13:15:02.344Z,29.23
2022-08-21T13:17:35.385Z,28.89
2022-08-21T13:20:09.599Z,29.12
2022-08-21T13:22:44.735Z,29.39
2022-08-21T13:25:16.524Z,29.63
2022-08-21T13:27:44.939Z,29.86
2022-08-21T13:30:23.434Z,29.98
2022-08-21T13:32:56.916Z,30.14
2022-08-21T13:35:29.692Z,29.76
2022-08-21T13:37:57.546Z,29.80
2022-08-21T13:40:41.284Z,29.59
2022-08-21T13:43:15.269Z,29.51
2022-08-21T13:45:52.206Z,29.92
2022-08-21T13:48:20.332Z,30.05
2022-08-21T13:50:47.554Z,30.17
2022-08-21T13:53:24.843Z,29.69
2022-08-21T13:55:52.129Z,29.44
2022-08-21T13:58:45.600Z,29.23
2022-08-21T14:01:55.572Z,29.52
2022-08-21T14:04:53.101Z,29.64
2022-08-21T14:07:26.823Z,29.34
2022-08-21T14:09:54.379Z,29.28
2022-08-21T14:12:29.525Z,29.22
2022-08-21T14:14:58.197Z,29.21
2022-08-21T14:17:35.220Z,29.18
2022-08-21T14:20:02.525Z,29.21
2022-08-21T14:22:44.862Z,29.10
2022-08-21T14:25:20.387Z,29.00
2022-08-21T14:28:09.821Z,29.19
2022-08-21T14:30:41.277Z,29.28
2022-08-21T14:33:13.077Z,29.17
2022-08-21T14:35:40.522Z,29.42
2022-08-21T14:38:18.550Z,29.36
2022-08-21T14:40:48.220Z,29.35
2022-08-21T14:43:14.814Z,29.37
2022-08-21T14:45:41.742Z,29.45
2022-08-21T14:48:09.111Z,29.59
2022-08-21T14:50:35.915Z,29.52
2022-08-21T14:53:10.857Z,29.60
2022-08-21T14:55:58.403Z,29.67
2022-08-21T14:58:25.973Z,29.38
2022-08-21T15:00:53.625Z,29.08
2022-08-21T15:03:20.396Z,29.11
2022-08-21T15:05:47.062Z,29.11
2022-08-21T15:08:13.685Z,28.77
2022-08-21T15:10:57.079Z,28.45
2022-08-21T15:13:28.152Z,28.05
2022-08-21T15:15:55.083Z,27.95
2022-08-21T15:18:22.338Z,27.80
2022-08-21T15:20:49.526Z,27.86
2022-08-21T15:23:16.491Z,27.82
2022-08-21T15:25:45.342Z,27.84
2022-08-21T15:28:12.913Z,27.75
2022-08-21T15:30:41.450Z,27.80
2022-08-21T15:33:08.379Z,28.02
2022-08-21T15:35:38.418Z,28.09
2022-08-21T15:38:07.858Z,28.14
2022-08-21T15:40:39.691Z,28.29
2022-08-21T15:43:46.396Z,28.53
2022-08-21T15:46:15.558Z,28.63
2022-08-21T15:48:42.656Z,28.74
2022-08-21T15:51:11.781Z,28.70
2022-08-21T15:53:40.870Z,28.69
2022-08-21T15:56:12.561Z,28.60
2022-08-21T15:58:39.727Z,28.40
2022-08-21T16:01:06.500Z,28.36
2022-08-21T16:03:34.317Z,28.32
2022-08-21T16:06:00.880Z,28.24
2022-08-21T16:08:27.573Z,28.23
2022-08-21T16:10:55.486Z,28.08
2022-08-21T16:13:29.777Z,28.16
2022-08-21T16:15:56.653Z,28.15
2022-08-21T16:18:24.108Z,28.14
2022-08-21T16:20:51.071Z,28.00
2022-08-21T16:23:17.832Z,28.08
2022-08-21T16:25:46.072Z,28.02
2022-08-21T16:28:16.823Z,27.85
2022-08-21T16:30:46.798Z,27.73
2022-08-21T16:33:20.973Z,27.73
2022-08-21T16:35:48.095Z,27.59
2022-08-21T16:38:15.210Z,27.58
2022-08-21T16:40:41.855Z,27.69
2022-08-21T16:43:08.580Z,27.75
2022-08-21T16:45:35.180Z,27.80
2022-08-21T16:48:04.565Z,27.72
2022-08-21T16:50:31.273Z,27.83
2022-08-21T16:52:58.113Z,27.76
2022-08-21T16:55:24.977Z,27.70
2022-08-21T16:57:51.698Z,27.49
2022-08-21T17:00:18.441Z,27.44
2022-08-21T17:02:49.127Z,27.33
2022-08-21T17:05:16.123Z,27.30
2022-08-21T17:07:44.287Z,27.26
2022-08-21T17:10:13.555Z,27.16
2022-08-21T17:12:42.070Z,27.12
2022-08-21T17:15:21.805Z,27.06
2022-08-21T17:17:49.462Z,27.02
2022-08-21T17:20:17.786Z,26.92
2022-08-21T17:22:44.365Z,26.91
2022-08-21T17:25:10.941Z,26.74
2022-08-21T17:27:38.937Z,26.71
2022-08-21T17:30:07.209Z,26.59
2022-08-21T17:32:33.999Z,26.57
2022-08-21T17:35:00.637Z,26.52
2022-08-21T17:37:29.270Z,26.47
2022-08-21T17:39:56.457Z,26.18
2022-08-21T17:42:25.136Z,26.32
2022-08-21T17:44:52.169Z,26.30
2022-08-21T17:47:18.858Z,26.21
2022-08-21T17:49:45.738Z,26.18
2022-08-21T17:52:12.333Z,26.12
2022-08-21T17:54:41.087Z,25.96
2022-08-21T17:57:08.758Z,26.02
2022-08-21T17:59:35.481Z,25.98
2022-08-21T18:02:03.933Z,25.94
2022-08-21T18:04:34.700Z,25.70
2022-08-21T18:07:01.250Z,25.81
2022-08-21T18:09:28.315Z,25.74
2022-08-21T18:11:59.130Z,25.66
2022-08-21T18:14:31.438Z,25.57
2022-08-21T18:16:57.980Z,25.46
2022-08-21T18:19:28.322Z,25.39
2022-08-21T18:21:55.990Z,25.32
2022-08-21T18:24:23.969Z,25.23
2022-08-21T18:26:59.077Z,25.20
2022-08-21T18:29:27.016Z,25.15
2022-08-21T18:31:53.764Z,25.09
2022-08-21T18:34:35.678Z,25.03
2022-08-21T18:37:02.747Z,24.95
2022-08-21T18:39:38.035Z,24.87
2022-08-21T18:42:10.531Z,24.82
2022-08-21T18:44:38.975Z,24.70
2022-08-21T18:47:12.295Z,24.56
2022-08-21T18:49:39.128Z,24.56
2022-08-21T18:52:08.194Z,24.49
2022-08-21T18:54:37.340Z,24.41
2022-08-21T18:57:08.430Z,24.39
2022-08-21T18:59:36.295Z,24.34
2022-08-21T19:02:07.829Z,24.24
2022-08-21T19:04:44.354Z,24.18
2022-08-21T19:07:13.656Z,24.11
2022-08-21T19:09:41.635Z,23.94
2022-08-21T19:12:14.518Z,24.02
2022-08-21T19:14:41.393Z,23.98
2022-08-21T19:17:08.713Z,23.96
2022-08-21T19:19:36.699Z,23.91
2022-08-21T19:22:06.189Z,23.86
2022-08-21T19:24:40.267Z,23.70
2022-08-21T19:27:16.801Z,23.77
2022-08-21T19:29:43.438Z,23.63
2022-08-21T19:32:10.613Z,23.61
2022-08-21T19:34:38.634Z,23.65
2022-08-21T19:37:06.512Z,23.61
2022-08-21T19:39:38.914Z,23.58
2022-08-21T19:42:10.258Z,23.52
2022-08-21T19:44:39.593Z,23.50
2022-08-21T19:47:13.881Z,23.35
2022-08-21T19:49:52.254Z,23.38
2022-08-21T19:52:20.366Z,23.36
2022-08-21T19:54:46.970Z,23.32
2022-08-21T19:57:14.060Z,23.09
2022-08-21T19:59:41.522Z,23.17
2022-08-21T20:02:10.815Z,23.10
2022-08-21T20:04:38.007Z,23.18
2022-08-21T20:07:08.140Z,23.17
2022-08-21T20:09:36.956Z,23.11
2022-08-21T20:12:10.325Z,23.05
2022-08-21T20:14:46.107Z,22.96
2022-08-21T20:17:16.294Z,22.74
2022-08-21T20:19:45.491Z,22.84
2022-08-21T20:22:12.903Z,22.76
2022-08-21T20:24:42.032Z,22.74
2022-08-21T20:27:12.555Z,22.74
2022-08-21T20:29:39.496Z,22.72
2022-08-21T20:32:08.029Z,22.67
2022-08-21T20:34:39.953Z,22.54
2022-08-21T20:37:06.703Z,22.61
2022-08-21T20:39:35.889Z,22.52
2022-08-21T20:42:04.565Z,22.51
2022-08-21T20:44:34.389Z,22.46
2022-08-21T20:47:09.037Z,22.43
2022-08-21T20:49:43.115Z,22.38
2022-08-21T20:52:10.904Z,22.24
2022-08-21T20:54:50.057Z,22.31
2022-08-21T20:57:51.065Z,22.27
2022-08-21T21:00:20.922Z,22.17
2022-08-21T21:02:50.800Z,22.26
2022-08-21T21:05:25.891Z,22.27
2022-08-21T21:08:00.714Z,22.14
2022-08-21T21:10:52.232Z,22.10
2022-08-21T21:13:32.753Z,21.93
2022-08-21T21:16:04.497Z,22.00
2022-08-21T21:18:44.528Z,21.94
2022-08-21T21:21:33.138Z,21.95
2022-08-21T21:24:05.785Z,21.92
2022-08-21T21:26:52.226Z,21.84
2022-08-21T21:29:29.978Z,21.82
2022-08-21T21:32:18.370Z,21.85
2022-08-21T21:34:46.614Z,21.83
2022-08-21T21:37:25.801Z,21.71
2022-08-21T21:40:08.950Z,21.80
2022-08-21T21:42:49.394Z,21.79
2022-08-21T21:45:44.941Z,21.77
2022-08-21T21:48:36.545Z,21.87
2022-08-21T21:51:15.219Z,21.70
2022-08-21T21:54:04.921Z,21.85
2022-08-21T21:56:31.587Z,21.85
2022-08-21T21:59:13.714Z,21.67
2022-08-21T22:01:51.323Z,21.76
2022-08-21T22:04:50.885Z,21.77
2022-08-21T22:07:55.883Z,21.66
2022-08-21T22:10:33.499Z,21.71
2022-08-21T22:13:26.264Z,21.63
2022-08-21T22:15:54.453Z,21.64
2022-08-21T22:18:26.704Z,21.53
2022-08-21T22:20:55.862Z,21.59
2022-08-21T22:23:38.271Z,21.54
2022-08-21T22:26:09.916Z,21.45
2022-08-21T22:28:40.625Z,21.31
2022-08-21T22:31:21.632Z,21.30
2022-08-21T22:34:07.136Z,21.32
2022-08-21T22:36:59.397Z,21.29
2022-08-21T22:39:39.608Z,21.29
2022-08-21T22:42:22.673Z,21.30
2022-08-21T22:44:58.463Z,21.28
2022-08-21T22:47:33.779Z,21.28
2022-08-21T22:50:05.461Z,21.26
2022-08-21T22:52:35.770Z,21.26
2022-08-21T22:55:24.644Z,21.14
2022-08-21T22:58:43.349Z,21.18
2022-08-21T23:01:33.349Z,21.14
2022-08-21T23:04:14.909Z,21.10
2022-08-21T23:09:44.994Z,21.05
2022-08-21T23:12:35.713Z,20.96
2022-08-21T23:15:07.988Z,20.87
2022-08-21T23:17:45.545Z,20.80
2022-08-21T23:20:33.459Z,20.77
2022-08-21T23:23:23.611Z,20.77
2022-08-21T23:26:08.296Z,20.71
2022-08-21T23:29:07.728Z,20.71
2022-08-21T23:31:46.215Z,20.71
2022-08-21T23:34:52.466Z,20.66
2022-08-21T23:37:49.418Z,20.61
2022-08-21T23:40:39.220Z,20.56
2022-08-21T23:43:41.971Z,20.54
2022-08-21T23:46:53.916Z,20.53
2022-08-21T23:52:53.786Z,20.46
2022-08-21T23:55:45.315Z,20.47
2022-08-21T23:58:22.998Z,20.46
